Time;durP1;ratioP1;P1;durP2;ratioP2;P2;SDS_P1;SDS_P2;PMS_P1;PMS_P2;Temp;Humidity;BMP_temperature;BMP_pressure;BME280_temperature;BME280_humidity;BME280_pressure;Samples;Min_cycle;Max_cycle;Signal;HPM_P1;HPM_P2
2023/10/03 00:00:34;;;;;;;24.25;12.90;;;16.00;99.90;;;;;;4973906;28;20209;-61
2023/10/03 00:03:03;;;;;;;27.02;13.90;;;16.00;99.90;;;;;;4979825;28;20256;-61
2023/10/03 00:05:31;;;;;;;25.02;13.93;;;16.00;99.90;;;;;;4983461;28;20184;-61
2023/10/03 00:08:03;;;;;;;26.70;13.68;;;16.00;99.90;;;;;;4993918;28;20209;-61
2023/10/03 00:10:32;;;;;;;22.88;12.57;;;16.00;99.90;;;;;;4993996;28;20192;-63
2023/10/03 00:12:59;;;;;;;28.40;15.23;;;16.00;99.90;;;;;;4987255;28;20260;-64
2023/10/03 00:15:25;;;;;;;30.38;14.70;;;16.00;99.90;;;;;;4974136;28;20177;-63
2023/10/03 00:17:52;;;;;;;26.88;14.02;;;16.10;99.90;;;;;;4977552;28;20188;-63
2023/10/03 00:20:18;;;;;;;28.70;13.82;;;16.10;99.90;;;;;;4973034;28;20748;-63
2023/10/03 00:22:47;;;;;;;27.98;14.50;;;16.10;99.90;;;;;;4977454;28;20169;-63
2023/10/03 00:25:18;;;;;;;26.58;14.32;;;16.10;99.90;;;;;;4993675;28;20192;-63
2023/10/03 00:27:51;;;;;;;25.40;14.55;;;16.20;99.90;;;;;;4994032;28;20153;-63
2023/10/03 00:30:21;;;;;;;27.95;14.70;;;16.30;99.90;;;;;;4993472;28;20289;-63
2023/10/03 00:32:53;;;;;;;28.10;15.18;;;16.30;99.90;;;;;;4978173;28;20726;-63
2023/10/03 00:35:22;;;;;;;26.48;14.27;;;16.40;99.90;;;;;;4978168;28;20192;-63
2023/10/03 00:37:52;;;;;;;27.45;15.48;;;16.60;99.90;;;;;;4977093;28;20211;-63
2023/10/03 00:42:54;;;;;;;28.48;14.55;;;17.40;99.90;;;;;;4978190;28;20177;-63
2023/10/03 00:45:24;;;;;;;27.63;14.02;;;17.50;99.90;;;;;;4977849;28;20172;-63
2023/10/03 00:47:54;;;;;;;26.00;13.65;;;17.50;99.90;;;;;;4977549;28;20189;-63
2023/10/03 00:50:25;;;;;;;26.58;13.60;;;17.50;99.90;;;;;;4977983;28;20658;-63
2023/10/03 00:53:04;;;;;;;31.80;14.77;;;17.50;99.90;;;;;;4992422;28;20180;-63
2023/10/03 00:55:32;;;;;;;29.45;14.88;;;17.80;99.90;;;;;;4972677;28;20284;-63
2023/10/03 01:00:40;;;;;;;28.15;14.27;;;18.20;99.90;;;;;;4977256;28;20208;-63
2023/10/03 01:03:06;;;;;;;32.78;15.95;;;18.10;99.90;;;;;;4982299;28;20170;-63
2023/10/03 01:05:36;;;;;;;29.65;14.98;;;18.30;99.90;;;;;;4977798;28;20181;-63
2023/10/03 01:08:05;;;;;;;30.77;15.55;;;18.30;99.90;;;;;;4977576;28;20165;-63
2023/10/03 01:10:32;;;;;;;33.72;15.00;;;18.40;99.90;;;;;;4977153;28;20201;-63
2023/10/03 01:13:08;;;;;;;29.75;14.57;;;18.50;99.90;;;;;;4975787;28;20200;-63
2023/10/03 01:15:35;;;;;;;27.10;13.80;;;18.70;99.90;;;;;;4977223;28;20188;-63
2023/10/03 01:18:02;;;;;;;36.60;15.32;;;18.90;99.90;;;;;;4975681;28;20212;-63
2023/10/03 01:20:40;;;;;;;30.63;14.95;;;19.00;99.90;;;;;;4959828;28;20223;-64
2023/10/03 01:23:15;;;;;;;29.05;14.82;;;19.20;99.90;;;;;;4977092;28;20564;-63
2023/10/03 01:25:44;;;;;;;27.98;14.73;;;19.30;99.90;;;;;;4977159;28;20564;-63
2023/10/03 01:28:11;;;;;;;26.27;13.80;;;19.30;99.90;;;;;;4959747;28;20177;-63
2023/10/03 01:30:40;;;;;;;26.40;13.90;;;19.20;99.90;;;;;;4975670;28;20220;-63
2023/10/03 01:33:10;;;;;;;27.27;13.60;;;19.20;99.90;;;;;;4976859;28;20185;-63
2023/10/03 01:35:35;;;;;;;25.42;13.73;;;19.20;99.90;;;;;;4975796;28;20181;-63
2023/10/03 01:38:02;;;;;;;28.77;14.85;;;19.10;99.90;;;;;;4996113;28;20523;-63
2023/10/03 01:40:29;;;;;;;30.95;15.57;;;18.90;99.90;;;;;;4996325;28;20208;-63
2023/10/03 01:42:55;;;;;;;30.15;14.30;;;18.80;99.90;;;;;;4985604;28;20220;-64
2023/10/03 01:45:24;;;;;;;27.90;14.75;;;18.70;99.90;;;;;;4974173;28;20185;-63
2023/10/03 01:47:51;;;;;;;30.70;15.48;;;18.70;99.90;;;;;;4976792;28;20181;-64
2023/10/03 01:50:19;;;;;;;25.88;14.02;;;18.80;99.90;;;;;;4959338;28;20251;-64
2023/10/03 01:52:49;;;;;;;31.00;14.48;;;18.80;99.90;;;;;;4975209;28;20185;-63
2023/10/03 01:55:17;;;;;;;28.27;14.50;;;18.70;99.90;;;;;;4976671;28;20619;-63
2023/10/03 01:57:44;;;;;;;26.02;12.93;;;18.80;99.90;;;;;;4976571;28;20177;-63
2023/10/03 02:00:25;;;;;;;28.00;14.52;;;18.80;99.90;;;;;;4976161;28;20211;-63
2023/10/03 02:03:03;;;;;;;27.75;14.25;;;19.00;99.90;;;;;;4958999;28;20177;-64
2023/10/03 02:05:30;;;;;;;26.75;14.45;;;18.90;99.90;;;;;;4976205;28;20177;-63
2023/10/03 02:07:55;;;;;;;31.50;14.43;;;18.80;99.90;;;;;;4995919;28;20195;-63
2023/10/03 02:10:22;;;;;;;27.10;12.77;;;19.00;99.90;;;;;;4981765;28;20209;-63
2023/10/03 02:12:49;;;;;;;27.92;15.10;;;19.00;99.90;;;;;;4992611;28;20191;-63
2023/10/03 02:15:27;;;;;;;22.80;12.27;;;19.00;99.90;;;;;;4995512;28;20227;-64
2023/10/03 02:17:54;;;;;;;29.02;14.50;;;18.90;99.90;;;;;;4979826;28;20239;-63
2023/10/03 02:20:25;;;;;;;27.15;13.90;;;19.00;99.90;;;;;;4976025;28;20211;-63
2023/10/03 02:22:54;;;;;;;27.92;13.63;;;19.00;99.90;;;;;;4976049;28;20180;-63
2023/10/03 02:25:27;;;;;;;28.27;14.48;;;18.80;99.90;;;;;;4975267;28;20189;-62
2023/10/03 02:27:54;;;;;;;25.40;12.80;;;18.80;99.90;;;;;;4975687;28;20185;-63
2023/10/03 02:30:27;;;;;;;26.65;13.90;;;18.80;99.90;;;;;;4976037;28;20203;-63
2023/10/03 02:32:54;;;;;;;24.65;13.65;;;18.80;99.90;;;;;;4975870;28;20177;-64
2023/10/03 02:35:22;;;;;;;24.02;13.23;;;18.70;99.90;;;;;;4975795;28;20177;-63
2023/10/03 02:37:49;;;;;;;29.88;14.10;;;18.50;99.90;;;;;;4975932;28;20181;-64
2023/10/03 02:40:22;;;;;;;26.95;13.32;;;18.50;99.90;;;;;;4975917;28;20555;-64
2023/10/03 02:42:50;;;;;;;28.67;13.52;;;18.60;99.90;;;;;;4975772;28;20175;-63
2023/10/03 02:45:17;;;;;;;26.20;13.68;;;18.70;99.90;;;;;;4974083;28;20189;-64
2023/10/03 02:47:43;;;;;;;25.88;12.65;;;19.00;99.90;;;;;;4957922;28;20700;-63
2023/10/03 02:50:12;;;;;;;26.50;13.27;;;19.00;99.90;;;;;;4975704;28;20209;-63
2023/10/03 02:52:39;;;;;;;25.67;13.45;;;19.10;99.90;;;;;;4975584;28;20264;-63
2023/10/03 02:55:09;;;;;;;25.30;13.50;;;19.20;99.90;;;;;;4976140;28;20554;-63
2023/10/03 02:57:38;;;;;;;25.27;13.23;;;19.30;99.90;;;;;;4958588;28;20270;-65
2023/10/03 03:00:14;;;;;;;29.85;13.15;;;19.40;99.90;;;;;;4972897;28;20205;-64
2023/10/03 03:02:46;;;;;;;24.60;13.88;;;19.50;99.90;;;;;;4976498;28;20169;-63
2023/10/03 03:05:16;;;;;;;26.38;12.73;;;19.60;99.90;;;;;;4958126;28;20174;-64
2023/10/03 03:07:46;;;;;;;24.60;13.02;;;19.60;99.90;;;;;;4975481;28;20153;-63
2023/10/03 03:10:14;;;;;;;29.70;13.15;;;19.70;99.90;;;;;;4975222;28;20197;-63
2023/10/03 03:12:42;;;;;;;24.77;12.23;;;19.80;99.90;;;;;;4975282;28;20693;-63
2023/10/03 03:15:22;;;;;;;21.55;12.55;;;19.90;99.90;;;;;;4973585;28;20191;-63
2023/10/03 03:17:51;;;;;;;23.55;12.77;;;19.90;99.90;;;;;;4974904;28;20202;-63
2023/10/03 03:20:18;;;;;;;22.38;11.88;;;20.00;99.90;;;;;;4974984;28;20213;-64
2023/10/03 03:22:48;;;;;;;25.83;12.98;;;19.90;99.90;;;;;;4957948;28;20181;-63
2023/10/03 03:25:25;;;;;;;23.88;12.63;;;19.90;99.90;;;;;;4974791;28;20666;-63
2023/10/03 03:27:54;;;;;;;22.27;11.90;;;19.90;99.90;;;;;;4974660;28;20185;-63
2023/10/03 03:32:53;;;;;;;23.23;12.02;;;19.90;99.90;;;;;;4972889;28;20189;-64
2023/10/03 03:35:22;;;;;;;26.08;13.45;;;19.90;99.90;;;;;;4975053;28;20185;-63
2023/10/03 03:37:48;;;;;;;24.92;12.57;;;20.00;99.90;;;;;;4974926;28;20185;-63
2023/10/03 03:40:29;;;;;;;22.98;12.38;;;20.00;99.90;;;;;;4957348;28;20216;-63
2023/10/03 03:42:58;;;;;;;26.17;12.35;;;20.10;99.90;;;;;;4975411;28;20154;-63
2023/10/03 03:45:27;;;;;;;23.25;12.45;;;20.10;99.90;;;;;;4974708;28;20173;-63
2023/10/03 03:47:54;;;;;;;23.17;12.63;;;20.10;99.90;;;;;;4973103;28;20185;-63
2023/10/03 03:50:21;;;;;;;22.83;12.45;;;19.90;99.90;;;;;;4973029;28;20212;-63
2023/10/03 03:52:49;;;;;;;22.23;12.13;;;19.90;99.90;;;;;;4974371;28;20184;-63
2023/10/03 03:55:17;;;;;;;26.05;12.95;;;19.90;99.90;;;;;;4976199;28;20256;-63
2023/10/03 03:57:46;;;;;;;23.77;12.00;;;19.90;99.90;;;;;;4974664;28;20177;-63
2023/10/03 04:00:22;;;;;;;23.95;12.10;;;19.90;99.90;;;;;;4972006;28;20582;-63
2023/10/03 04:02:48;;;;;;;23.60;12.13;;;20.00;99.90;;;;;;4990022;28;20174;-63
2023/10/03 04:05:17;;;;;;;24.08;12.05;;;20.00;99.90;;;;;;4992439;28;20197;-63
2023/10/03 04:07:43;;;;;;;22.98;12.85;;;20.00;99.90;;;;;;4955697;28;20166;-63
2023/10/03 04:10:12;;;;;;;22.95;11.25;;;20.20;99.90;;;;;;4966674;28;20205;-63
2023/10/03 04:12:41;;;;;;;20.02;11.15;;;20.30;99.90;;;;;;4980982;28;20192;-63
2023/10/03 04:15:13;;;;;;;22.15;11.90;;;20.40;99.90;;;;;;4980674;28;20184;-63
2023/10/03 04:17:43;;;;;;;25.40;12.35;;;20.40;99.90;;;;;;4980794;28;20606;-63
2023/10/03 04:20:19;;;;;;;22.85;11.32;;;20.40;99.90;;;;;;4979393;28;20299;-63
2023/10/03 04:22:48;;;;;;;23.00;11.45;;;20.40;99.90;;;;;;4976576;28;20181;-63
2023/10/03 04:25:14;;;;;;;20.25;11.20;;;20.40;99.90;;;;;;4980924;28;20196;-63
2023/10/03 04:27:41;;;;;;;21.23;11.88;;;20.50;99.90;;;;;;4980458;28;20638;-63
2023/10/03 04:30:13;;;;;;;24.77;12.60;;;20.50;99.90;;;;;;4980514;28;20200;-63
2023/10/03 04:32:47;;;;;;;20.50;11.73;;;20.50;99.90;;;;;;4980609;28;20177;-63
2023/10/03 04:35:13;;;;;;;26.95;13.15;;;20.40;99.90;;;;;;4961734;29;20219;-63
2023/10/03 04:37:42;;;;;;;20.35;10.93;;;20.40;99.90;;;;;;4969494;28;20164;-63
2023/10/03 04:40:37;;;;;;;25.80;12.20;;;20.30;99.90;;;;;;4979353;28;20220;-63
2023/10/03 04:43:15;;;;;;;21.20;10.95;;;20.20;99.90;;;;;;4980696;28;20591;-64
2023/10/03 04:45:42;;;;;;;23.08;10.85;;;20.10;99.90;;;;;;4980641;28;20217;-63
2023/10/03 04:48:08;;;;;;;21.23;11.88;;;20.20;99.90;;;;;;4980401;28;20189;-64
2023/10/03 04:50:39;;;;;;;22.10;11.60;;;20.10;99.90;;;;;;4998512;28;20200;-63
2023/10/03 04:53:09;;;;;;;24.15;11.27;;;20.00;99.90;;;;;;5000306;28;20227;-64
2023/10/03 04:55:35;;;;;;;21.75;11.48;;;20.00;99.90;;;;;;5002111;28;20255;-64
2023/10/03 04:58:01;;;;;;;22.58;11.63;;;19.90;99.90;;;;;;4973376;28;20216;-64
2023/10/03 05:00:26;;;;;;;19.73;10.88;;;19.90;99.90;;;;;;4981454;28;20233;-63
2023/10/03 05:02:53;;;;;;;18.75;10.50;;;19.80;99.90;;;;;;4981449;28;20173;-63
2023/10/03 05:05:24;;;;;;;22.48;11.35;;;19.80;99.90;;;;;;4980576;28;20177;-63
2023/10/03 05:07:56;;;;;;;19.10;10.05;;;20.00;99.90;;;;;;4980603;28;20641;-63
2023/10/03 05:10:23;;;;;;;21.98;11.52;;;19.90;99.90;;;;;;4980361;28;20259;-63
2023/10/03 05:12:51;;;;;;;20.27;11.48;;;20.00;99.90;;;;;;4979279;28;20744;-63
2023/10/03 05:15:17;;;;;;;24.42;12.15;;;20.10;99.90;;;;;;4979227;28;20283;-63
2023/10/03 05:17:47;;;;;;;21.48;11.70;;;20.00;99.90;;;;;;4980443;28;20621;-63
2023/10/03 05:20:15;;;;;;;21.85;11.85;;;20.00;99.90;;;;;;4978605;28;20213;-63
2023/10/03 05:22:42;;;;;;;18.80;10.25;;;20.00;99.90;;;;;;4977308;28;20264;-63
2023/10/03 05:25:13;;;;;;;19.05;10.57;;;20.00;99.90;;;;;;4976980;28;20189;-63
2023/10/03 05:27:42;;;;;;;19.90;10.38;;;20.00;99.90;;;;;;4977049;28;20649;-63
2023/10/03 05:30:10;;;;;;;19.63;10.55;;;19.90;99.90;;;;;;4975718;28;20267;-63
2023/10/03 05:32:37;;;;;;;26.80;11.73;;;19.80;99.90;;;;;;4976804;28;20709;-63
2023/10/03 05:35:07;;;;;;;17.83;9.85;;;19.70;99.90;;;;;;4996117;28;20181;-63
2023/10/03 05:37:33;;;;;;;20.50;11.25;;;19.70;99.90;;;;;;4974988;28;20555;-63
2023/10/03 05:40:11;;;;;;;21.48;10.20;;;19.70;99.90;;;;;;4977357;28;20243;-63
2023/10/03 05:42:40;;;;;;;21.67;11.20;;;19.70;99.90;;;;;;4977502;28;20240;-63
2023/10/03 05:45:09;;;;;;;21.77;11.02;;;19.70;99.90;;;;;;4975462;28;20173;-63
2023/10/03 05:47:35;;;;;;;19.50;10.77;;;19.70;99.90;;;;;;4975499;28;20550;-63
2023/10/03 05:50:00;;;;;;;20.98;11.32;;;19.70;99.90;;;;;;4959194;28;20201;-63
2023/10/03 05:52:26;;;;;;;21.80;11.50;;;19.70;99.90;;;;;;4959529;28;20646;-63
2023/10/03 05:54:52;;;;;;;19.20;10.15;;;19.80;99.90;;;;;;4976995;28;20177;-63
2023/10/03 05:57:19;;;;;;;21.00;11.25;;;19.80;99.90;;;;;;4977059;28;20668;-62
2023/10/03 05:59:45;;;;;;;22.60;11.93;;;19.80;99.90;;;;;;4975539;28;20201;-63
2023/10/03 06:02:12;;;;;;;19.70;11.02;;;19.90;99.90;;;;;;4975624;28;20184;-63
2023/10/03 06:04:38;;;;;;;20.15;10.65;;;19.90;99.90;;;;;;4976250;28;20184;-63
2023/10/03 06:07:06;;;;;;;20.45;10.73;;;20.00;99.90;;;;;;4976851;28;20170;-63
2023/10/03 06:09:33;;;;;;;21.17;10.88;;;20.10;99.90;;;;;;4975271;28;20185;-63
2023/10/03 06:11:59;;;;;;;21.17;10.43;;;20.10;99.90;;;;;;4959014;28;20300;-63
2023/10/03 06:14:25;;;;;;;22.48;10.65;;;20.10;99.90;;;;;;4971358;28;20272;-62
2023/10/03 06:16:51;;;;;;;24.13;11.43;;;20.10;99.90;;;;;;4980568;28;20284;-62
2023/10/03 06:19:18;;;;;;;19.13;10.95;;;20.10;99.90;;;;;;4974740;28;20217;-62
2023/10/03 06:21:45;;;;;;;19.00;9.98;;;20.10;99.90;;;;;;4976028;28;20208;-62
2023/10/03 06:24:11;;;;;;;20.58;10.27;;;20.10;99.90;;;;;;4973770;28;20185;-63
2023/10/03 06:26:37;;;;;;;19.52;10.85;;;20.10;99.90;;;;;;4974478;28;20185;-63
2023/10/03 06:29:03;;;;;;;20.20;9.93;;;20.10;99.90;;;;;;4956989;28;20226;-62
2023/10/03 06:31:30;;;;;;;26.13;10.45;;;20.10;99.90;;;;;;4962781;28;20209;-63
2023/10/03 06:33:55;;;;;;;18.20;9.98;;;20.20;99.90;;;;;;4970988;28;20646;-62
2023/10/03 06:36:21;;;;;;;19.05;9.88;;;20.20;99.90;;;;;;4965718;28;20276;-63
2023/10/03 06:38:49;;;;;;;17.33;10.20;;;20.10;99.90;;;;;;4975232;28;20185;-62
2023/10/03 06:41:19;;;;;;;23.70;10.10;;;20.10;99.90;;;;;;4974975;28;20212;-62
2023/10/03 06:43:45;;;;;;;20.50;10.07;;;20.10;99.90;;;;;;4957978;28;20177;-62
2023/10/03 06:46:11;;;;;;;22.98;10.52;;;20.00;99.90;;;;;;4974685;28;20239;-62
2023/10/03 06:48:37;;;;;;;20.23;10.20;;;20.10;99.90;;;;;;4967646;28;20188;-63
2023/10/03 06:51:05;;;;;;;20.13;11.00;;;20.10;99.90;;;;;;4964241;28;20193;-63
2023/10/03 06:53:32;;;;;;;17.88;10.00;;;20.20;99.90;;;;;;4969894;28;20189;-62
2023/10/03 06:55:58;;;;;;;23.77;11.05;;;20.10;99.90;;;;;;4970161;28;20192;-61
2023/10/03 06:58:24;;;;;;;18.85;10.30;;;20.10;99.90;;;;;;4974773;28;20642;-63
2023/10/03 07:00:54;;;;;;;21.60;10.30;;;20.10;99.90;;;;;;4970574;28;20220;-63
2023/10/03 07:03:23;;;;;;;21.38;9.45;;;20.00;99.90;;;;;;4959774;28;20682;-61
2023/10/03 07:05:49;;;;;;;16.77;9.68;;;20.10;99.90;;;;;;4978945;28;20196;-63
2023/10/03 07:08:15;;;;;;;15.75;9.23;;;20.20;99.90;;;;;;4960375;28;20232;-63
2023/10/03 07:10:41;;;;;;;18.42;10.63;;;20.10;99.90;;;;;;4968921;28;20245;-63
2023/10/03 07:13:08;;;;;;;19.33;10.02;;;20.10;99.90;;;;;;4975012;28;20248;-63
2023/10/03 07:15:34;;;;;;;18.50;9.30;;;20.10;99.90;;;;;;4973417;28;20200;-63
2023/10/03 07:18:03;;;;;;;18.05;10.15;;;20.00;99.90;;;;;;4974585;28;20662;-63
2023/10/03 07:20:29;;;;;;;18.85;10.15;;;20.00;99.90;;;;;;4974768;28;20236;-62
2023/10/03 07:22:55;;;;;;;19.02;10.20;;;20.00;99.90;;;;;;4975343;28;20168;-62
2023/10/03 07:25:21;;;;;;;16.15;9.25;;;20.00;99.90;;;;;;4974777;28;20193;-63
2023/10/03 07:27:48;;;;;;;17.20;9.60;;;20.00;99.90;;;;;;4974512;28;20191;-63
2023/10/03 07:30:15;;;;;;;18.90;9.57;;;20.00;99.90;;;;;;4974196;28;20729;-63
2023/10/03 07:32:41;;;;;;;17.73;9.70;;;20.00;99.90;;;;;;4974613;28;20231;-62
2023/10/03 07:35:11;;;;;;;16.60;9.55;;;20.00;99.90;;;;;;4974723;28;20577;-63
2023/10/03 07:37:39;;;;;;;19.27;9.13;;;20.00;99.90;;;;;;4974003;28;20220;-62
2023/10/03 07:40:08;;;;;;;17.98;9.13;;;20.00;99.90;;;;;;4973697;28;20267;-62
2023/10/03 07:42:34;;;;;;;17.92;9.60;;;20.00;99.90;;;;;;4974380;28;20544;-62
2023/10/03 07:44:59;;;;;;;18.60;9.50;;;19.90;99.90;;;;;;4973744;28;20177;-62
2023/10/03 07:47:25;;;;;;;17.10;9.10;;;19.80;99.90;;;;;;4976018;28;20603;-62
2023/10/03 07:49:51;;;;;;;16.65;8.52;;;19.80;99.90;;;;;;4960188;28;20189;-61
2023/10/03 07:52:20;;;;;;;18.67;8.25;;;19.80;99.90;;;;;;4974501;28;20173;-61
2023/10/03 07:54:52;;;;;;;13.45;8.23;;;19.70;99.90;;;;;;4972786;28;20235;-62
2023/10/03 07:57:18;;;;;;;15.07;7.95;;;19.70;99.90;;;;;;4961507;28;20181;-61
2023/10/03 07:59:44;;;;;;;17.17;7.90;;;19.60;99.90;;;;;;4969152;28;20256;-60
2023/10/03 08:02:10;;;;;;;15.77;8.07;;;19.60;99.90;;;;;;4971343;28;20181;-61
2023/10/03 08:04:41;;;;;;;16.25;8.07;;;19.70;99.90;;;;;;4977143;28;20169;-61
2023/10/03 08:07:07;;;;;;;16.67;8.43;;;19.60;99.90;;;;;;4972764;28;20172;-61
2023/10/03 08:09:33;;;;;;;17.58;7.47;;;19.60;99.90;;;;;;4974968;28;20180;-60
2023/10/03 08:11:59;;;;;;;16.38;8.80;;;19.50;99.90;;;;;;4973925;28;20226;-60
2023/10/03 08:14:24;;;;;;;13.57;8.32;;;19.50;99.90;;;;;;4975094;28;20622;-60
2023/10/03 08:16:52;;;;;;;12.80;7.47;;;19.50;99.90;;;;;;4973526;28;20243;-61
2023/10/03 08:19:27;;;;;;;13.68;7.88;;;19.50;99.90;;;;;;4970366;28;20177;-62
2023/10/03 08:21:54;;;;;;;23.77;8.63;;;19.50;99.90;;;;;;4964178;28;20283;-62
2023/10/03 08:24:24;;;;;;;13.23;7.75;;;19.60;99.90;;;;;;4974146;28;20646;-62
2023/10/03 08:26:51;;;;;;;17.05;8.40;;;19.60;99.90;;;;;;4958891;28;20260;-61
2023/10/03 08:29:21;;;;;;;14.32;7.88;;;19.70;99.90;;;;;;4973974;28;20173;-62
2023/10/03 08:31:57;;;;;;;19.40;8.13;;;19.70;99.90;;;;;;4974424;28;20206;-62
2023/10/03 08:34:30;;;;;;;18.42;7.93;;;19.70;99.90;;;;;;4973909;28;20181;-61
2023/10/03 08:37:01;;;;;;;17.55;7.68;;;19.70;99.90;;;;;;4973920;28;20173;-60
2023/10/03 08:39:34;;;;;;;17.08;8.13;;;19.70;99.90;;;;;;4974133;28;20244;-60
2023/10/03 08:42:12;;;;;;;14.13;7.60;;;19.80;99.90;;;;;;4974230;28;20205;-60
2023/10/03 08:44:51;;;;;;;13.75;7.03;;;19.80;99.90;;;;;;4968620;28;20696;-60
2023/10/03 08:47:33;;;;;;;12.55;6.85;;;19.90;99.90;;;;;;4973925;28;20181;-61
2023/10/03 08:50:10;;;;;;;14.27;6.25;;;20.00;99.90;;;;;;4974258;28;20548;-62
2023/10/03 08:52:48;;;;;;;15.20;6.70;;;19.90;99.90;;;;;;4973778;28;20267;-61
2023/10/03 08:55:19;;;;;;;10.55;5.90;;;19.80;99.90;;;;;;4971619;28;20196;-62
2023/10/03 08:57:48;;;;;;;9.50;5.70;;;19.80;99.90;;;;;;4976899;28;20643;-62
2023/10/03 09:00:15;;;;;;;10.02;5.60;;;19.80;99.90;;;;;;4973093;28;20681;-61
2023/10/03 09:02:49;;;;;;;8.27;5.22;;;19.80;99.90;;;;;;4960741;28;20236;-61
2023/10/03 09:05:20;;;;;;;12.05;4.95;;;19.80;99.90;;;;;;4973876;28;20177;-60
2023/10/03 09:07:50;;;;;;;11.43;5.35;;;19.80;99.90;;;;;;4977411;28;20178;-62
2023/10/03 09:10:24;;;;;;;9.77;4.85;;;19.80;99.90;;;;;;4976804;28;20205;-61
2023/10/03 09:12:51;;;;;;;10.55;5.20;;;19.70;99.90;;;;;;4977415;28;20172;-62
2023/10/03 09:15:22;;;;;;;15.77;5.90;;;19.70;99.90;;;;;;4976901;28;20244;-62
2023/10/03 09:17:53;;;;;;;8.77;5.45;;;19.60;99.90;;;;;;4959745;28;20200;-62
2023/10/03 09:20:31;;;;;;;11.27;5.80;;;19.50;99.90;;;;;;4976803;28;20213;-61
2023/10/03 09:23:06;;;;;;;10.32;5.28;;;19.60;99.90;;;;;;4977579;28;20208;-60
2023/10/03 09:25:32;;;;;;;7.15;4.60;;;19.60;99.90;;;;;;4976805;28;20208;-62
2023/10/03 09:28:05;;;;;;;9.25;5.25;;;19.70;99.90;;;;;;4976882;28;20189;-60
2023/10/03 09:30:37;;;;;;;10.05;5.35;;;19.80;99.90;;;;;;4976761;28;20212;-61
2023/10/03 09:33:08;;;;;;;8.00;5.22;;;19.80;99.90;;;;;;4977140;28;20223;-61
2023/10/03 09:35:36;;;;;;;10.13;5.78;;;19.80;99.90;;;;;;4979611;28;20185;-60
2023/10/03 09:38:08;;;;;;;9.38;4.57;;;19.70;99.90;;;;;;4975092;28;21006;-61
2023/10/03 09:40:51;;;;;;;8.93;5.00;;;19.80;99.90;;;;;;4960514;28;20205;-61
2023/10/03 09:43:27;;;;;;;9.88;5.38;;;19.80;99.90;;;;;;4973298;28;20548;-61
2023/10/03 09:45:56;;;;;;;9.15;5.43;;;19.80;99.90;;;;;;4982843;28;20215;-61
2023/10/03 09:48:25;;;;;;;10.45;5.13;;;19.70;99.90;;;;;;4974465;28;20331;-60
2023/10/03 09:51:05;;;;;;;9.60;4.97;;;19.70;99.90;;;;;;4974190;28;20193;-60
2023/10/03 09:53:32;;;;;;;10.60;4.80;;;19.70;99.90;;;;;;4961591;28;20252;-60
2023/10/03 09:56:00;;;;;;;8.65;5.28;;;19.70;99.90;;;;;;4973834;28;20195;-60
2023/10/03 09:58:31;;;;;;;9.75;5.30;;;19.70;99.90;;;;;;4974401;28;20684;-60
2023/10/03 10:00:58;;;;;;;9.50;5.25;;;19.70;99.90;;;;;;4957146;28;20216;-60
2023/10/03 10:03:27;;;;;;;8.85;5.03;;;19.80;99.90;;;;;;4975054;28;20788;-60
2023/10/03 10:06:15;;;;;;;8.38;4.88;;;19.90;99.90;;;;;;4973299;28;20208;-61
2023/10/03 10:08:59;;;;;;;10.25;5.40;;;19.90;99.90;;;;;;4974759;28;20530;-61
2023/10/03 10:11:30;;;;;;;8.00;4.85;;;19.90;99.90;;;;;;4976434;28;20197;-60
2023/10/03 10:14:10;;;;;;;12.23;5.53;;;20.00;99.90;;;;;;4976211;28;20243;-60
2023/10/03 10:17:04;;;;;;;9.65;5.30;;;20.00;99.90;;;;;;4975708;28;20196;-61
2023/10/03 10:20:17;;;;;;;9.70;4.72;;;20.10;99.90;;;;;;4976210;28;20259;-60
2023/10/03 10:22:58;;;;;;;9.95;5.32;;;20.00;99.90;;;;;;4953242;28;20169;-60
2023/10/03 10:25:50;;;;;;;10.32;5.25;;;20.00;99.90;;;;;;4975816;28;20193;-61
2023/10/03 10:28:27;;;;;;;7.32;5.65;;;20.00;99.90;;;;;;4975255;28;20154;-61
2023/10/03 10:31:16;;;;;;;9.18;5.28;;;20.00;99.90;;;;;;4975152;28;20205;-60
2023/10/03 10:33:42;;;;;;;9.10;5.18;;;20.00;99.90;;;;;;4975912;28;20181;-60
2023/10/03 10:36:12;;;;;;;10.95;5.43;;;20.00;99.90;;;;;;4976203;28;20232;-60
2023/10/03 10:38:41;;;;;;;7.47;5.25;;;20.00;99.90;;;;;;4976239;28;20176;-60
2023/10/03 10:41:22;;;;;;;7.70;4.80;;;19.90;99.90;;;;;;4957118;28;20274;-60
2023/10/03 10:44:13;;;;;;;10.52;5.30;;;19.90;99.90;;;;;;4975565;28;20169;-60
2023/10/03 10:46:42;;;;;;;9.65;5.13;;;19.90;99.90;;;;;;4975554;28;20180;-60
2023/10/03 10:49:33;;;;;;;9.75;4.97;;;20.00;99.90;;;;;;4976352;28;20188;-60
2023/10/03 10:52:13;;;;;;;11.10;5.20;;;20.00;99.90;;;;;;4975629;28;20193;-60
2023/10/03 10:54:42;;;;;;;10.88;5.65;;;20.00;99.90;;;;;;4975672;28;20181;-61
2023/10/03 10:57:15;;;;;;;10.50;4.95;;;19.90;99.90;;;;;;4975684;28;20181;-60
2023/10/03 10:59:43;;;;;;;8.73;4.57;;;19.90;99.90;;;;;;4955785;28;20193;-60
2023/10/03 11:02:19;;;;;;;11.35;5.60;;;19.80;99.90;;;;;;4975475;28;20631;-60
2023/10/03 11:04:52;;;;;;;8.05;4.97;;;19.70;99.90;;;;;;4975465;28;20268;-60
2023/10/03 11:07:26;;;;;;;7.82;5.25;;;19.60;99.90;;;;;;4975490;28;20165;-60
2023/10/03 11:09:54;;;;;;;9.15;4.63;;;18.90;99.90;;;;;;4976024;28;20252;-60
2023/10/03 11:12:27;;;;;;;10.20;5.18;;;18.40;99.90;;;;;;4975483;28;20256;-61
2023/10/03 11:14:55;;;;;;;10.95;6.35;;;17.60;99.90;;;;;;4975297;28;20203;-61
2023/10/03 11:17:21;;;;;;;11.30;7.05;;;16.90;99.90;;;;;;4957345;28;20597;-62
2023/10/03 11:19:49;;;;;;;17.50;7.72;;;16.60;99.90;;;;;;4977091;28;20575;-60
2023/10/03 11:22:17;;;;;;;13.00;8.57;;;16.50;99.90;;;;;;4975310;28;20177;-60
2023/10/03 11:24:46;;;;;;;15.95;9.85;;;16.40;99.90;;;;;;4974627;28;20530;-61
2023/10/03 11:27:26;;;;;;;18.20;11.13;;;16.40;99.90;;;;;;4974414;28;20238;-60
2023/10/03 11:29:52;;;;;;;14.75;11.23;;;16.30;99.90;;;;;;4972592;28;20180;-63
2023/10/03 11:32:35;;;;;;;21.05;12.02;;;16.30;99.90;;;;;;4973810;28;20530;-61
2023/10/03 11:35:15;;;;;;;19.25;13.95;;;16.20;99.90;;;;;;4984296;28;20188;-61
2023/10/03 11:37:44;;;;;;;20.02;13.68;;;16.20;99.90;;;;;;4964133;28;20227;-61
2023/10/03 11:40:11;;;;;;;19.20;14.25;;;16.30;99.90;;;;;;4974035;28;20212;-61
2023/10/03 11:42:56;;;;;;;19.65;13.50;;;16.30;99.90;;;;;;4974361;28;20685;-61
2023/10/03 11:45:29;;;;;;;25.83;15.40;;;16.40;99.90;;;;;;4970258;28;20185;-61
2023/10/03 11:48:10;;;;;;;24.05;15.90;;;16.40;99.90;;;;;;4972110;28;20244;-61
2023/10/03 11:50:41;;;;;;;25.02;17.17;;;16.40;99.90;;;;;;4975338;28;20201;-62
2023/10/03 11:53:10;;;;;;;21.90;18.08;;;16.40;99.90;;;;;;4992003;28;20172;-61
2023/10/03 11:55:36;;;;;;;25.25;18.58;;;16.50;99.90;;;;;;4980269;28;20189;-62
2023/10/03 11:58:03;;;;;;;24.35;17.33;;;16.50;99.90;;;;;;4971800;28;20185;-61
2023/10/03 12:00:29;;;;;;;23.50;16.23;;;16.50;99.90;;;;;;4974066;28;20685;-61
2023/10/03 12:02:55;;;;;;;20.30;16.17;;;16.60;99.90;;;;;;4973546;28;20210;-61
2023/10/03 12:05:23;;;;;;;20.00;13.20;;;16.60;99.90;;;;;;4973081;28;20189;-61
2023/10/03 12:07:50;;;;;;;18.05;12.40;;;16.70;99.90;;;;;;4966523;28;20261;-61
2023/10/03 12:10:20;;;;;;;13.18;10.23;;;16.80;99.90;;;;;;4972980;28;20328;-61
2023/10/03 12:12:46;;;;;;;12.55;10.38;;;16.90;99.90;;;;;;4966724;28;20181;-62
2023/10/03 12:15:12;;;;;;;13.35;8.23;;;16.90;99.90;;;;;;4969892;28;20701;-61
2023/10/03 12:17:48;;;;;;;17.45;7.38;;;16.90;99.90;;;;;;4973524;28;20652;-61
2023/10/03 12:20:16;;;;;;;11.82;6.57;;;17.00;99.90;;;;;;4973612;28;20217;-62
2023/10/03 12:22:48;;;;;;;11.55;7.18;;;17.10;99.90;;;;;;4973828;28;20181;-62
2023/10/03 12:25:15;;;;;;;12.93;6.22;;;17.00;99.90;;;;;;4973993;28;20197;-61
2023/10/03 12:27:42;;;;;;;5.95;4.55;;;17.00;99.90;;;;;;4969954;28;20181;-60
2023/10/03 12:30:10;;;;;;;6.13;4.45;;;16.90;99.90;;;;;;4976692;28;20685;-61
2023/10/03 12:32:38;;;;;;;4.53;3.60;;;16.90;99.90;;;;;;4972557;28;20196;-60
2023/10/03 12:35:08;;;;;;;5.25;3.63;;;16.70;99.90;;;;;;4958787;28;20553;-60
2023/10/03 12:37:35;;;;;;;9.95;3.67;;;16.60;99.90;;;;;;4977406;28;20567;-60
2023/10/03 12:40:08;;;;;;;5.10;2.97;;;16.50;99.90;;;;;;4977268;28;20658;-60
2023/10/03 12:42:34;;;;;;;3.55;2.83;;;16.40;99.90;;;;;;4974489;28;20247;-60
2023/10/03 12:45:01;;;;;;;3.78;2.80;;;16.30;99.90;;;;;;4975739;28;20220;-60
2023/10/03 12:47:35;;;;;;;5.80;3.20;;;16.30;99.90;;;;;;4978876;28;20188;-60
2023/10/03 12:50:02;;;;;;;7.20;3.47;;;16.30;99.90;;;;;;4977988;28;20184;-61
2023/10/03 12:52:29;;;;;;;6.18;3.25;;;16.30;99.90;;;;;;4977285;28;20207;-61
2023/10/03 12:54:56;;;;;;;4.32;3.22;;;16.20;99.90;;;;;;4975183;28;20184;-60